sensor_id;sensor_type;location;lat;lon;timestamp;P1;durP1;ratioP1;P2;durP2;ratioP2
70199;SDS011;57587;55.688;37.600;2023-05-24T00:00:21;19.13;;;8.45;;
70199;SDS011;57587;55.688;37.600;2023-05-24T00:02:48;11.73;;;7.30;;
70199;SDS011;57587;55.688;37.600;2023-05-24T00:05:16;13.70;;;7.93;;
70199;SDS011;57587;55.688;37.600;2023-05-24T00:07:44;10.93;;;7.55;;
70199;SDS011;57587;55.688;37.600;2023-05-24T00:10:11;13.35;;;7.05;;
70199;SDS011;57587;55.688;37.600;2023-05-24T00:12:38;16.15;;;8.40;;
70199;SDS011;57587;55.688;37.600;2023-05-24T00:15:06;14.20;;;7.30;;
70199;SDS011;57587;55.688;37.600;2023-05-24T00:17:33;12.90;;;8.07;;
70199;SDS011;57587;55.688;37.600;2023-05-24T00:20:08;14.07;;;7.35;;
70199;SDS011;57587;55.688;37.600;2023-05-24T00:22:40;14.95;;;8.18;;
70199;SDS011;57587;55.688;37.600;2023-05-24T00:25:07;14.63;;;8.27;;
70199;SDS011;57587;55.688;37.600;2023-05-24T00:27:35;14.77;;;8.60;;
70199;SDS011;57587;55.688;37.600;2023-05-24T00:30:04;16.20;;;8.25;;
70199;SDS011;57587;55.688;37.600;2023-05-24T00:32:36;12.88;;;7.50;;
70199;SDS011;57587;55.688;37.600;2023-05-24T00:35:03;15.60;;;8.23;;
70199;SDS011;57587;55.688;37.600;2023-05-24T00:37:31;14.50;;;7.75;;
70199;SDS011;57587;55.688;37.600;2023-05-24T00:39:58;17.17;;;8.35;;
70199;SDS011;57587;55.688;37.600;2023-05-24T00:42:25;15.50;;;8.40;;
70199;SDS011;57587;55.688;37.600;2023-05-24T00:44:52;19.38;;;8.23;;
70199;SDS011;57587;55.688;37.600;2023-05-24T00:47:19;14.80;;;8.73;;
70199;SDS011;57587;55.688;37.600;2023-05-24T00:49:47;13.45;;;8.68;;
70199;SDS011;57587;55.688;37.600;2023-05-24T00:52:14;15.25;;;8.70;;
70199;SDS011;57587;55.688;37.600;2023-05-24T00:54:42;15.48;;;8.52;;
70199;SDS011;57587;55.688;37.600;2023-05-24T00:57:10;13.43;;;9.15;;
70199;SDS011;57587;55.688;37.600;2023-05-24T00:59:39;11.93;;;8.85;;
70199;SDS011;57587;55.688;37.600;2023-05-24T01:02:07;15.60;;;8.10;;
70199;SDS011;57587;55.688;37.600;2023-05-24T01:04:34;12.93;;;8.48;;
70199;SDS011;57587;55.688;37.600;2023-05-24T01:10:14;13.38;;;7.88;;
70199;SDS011;57587;55.688;37.600;2023-05-24T01:13:03;13.05;;;8.13;;
70199;SDS011;57587;55.688;37.600;2023-05-24T01:18:32;17.73;;;8.90;;
70199;SDS011;57587;55.688;37.600;2023-05-24T01:21:12;16.67;;;9.10;;
70199;SDS011;57587;55.688;37.600;2023-05-24T01:26:44;17.17;;;8.98;;
70199;SDS011;57587;55.688;37.600;2023-05-24T01:29:19;16.48;;;9.18;;
70199;SDS011;57587;55.688;37.600;2023-05-24T01:31:48;19.20;;;8.98;;
70199;SDS011;57587;55.688;37.600;2023-05-24T01:34:16;16.98;;;8.32;;
70199;SDS011;57587;55.688;37.600;2023-05-24T01:36:46;16.95;;;8.38;;
70199;SDS011;57587;55.688;37.600;2023-05-24T01:39:13;16.60;;;8.32;;
70199;SDS011;57587;55.688;37.600;2023-05-24T01:41:44;20.20;;;8.55;;
70199;SDS011;57587;55.688;37.600;2023-05-24T01:49:53;14.93;;;8.80;;
70199;SDS011;57587;55.688;37.600;2023-05-24T01:52:25;14.25;;;8.45;;
70199;SDS011;57587;55.688;37.600;2023-05-24T01:54:55;18.58;;;8.30;;
70199;SDS011;57587;55.688;37.600;2023-05-24T01:57:23;16.92;;;8.32;;
70199;SDS011;57587;55.688;37.600;2023-05-24T01:59:53;17.40;;;7.97;;
70199;SDS011;57587;55.688;37.600;2023-05-24T02:02:22;15.82;;;8.57;;
70199;SDS011;57587;55.688;37.600;2023-05-24T02:04:50;19.38;;;9.02;;
70199;SDS011;57587;55.688;37.600;2023-05-24T02:07:17;27.25;;;9.90;;
70199;SDS011;57587;55.688;37.600;2023-05-24T02:09:45;28.40;;;9.90;;
70199;SDS011;57587;55.688;37.600;2023-05-24T02:12:12;22.75;;;8.95;;
70199;SDS011;57587;55.688;37.600;2023-05-24T02:14:39;18.80;;;8.25;;
70199;SDS011;57587;55.688;37.600;2023-05-24T02:17:08;23.58;;;8.65;;
70199;SDS011;57587;55.688;37.600;2023-05-24T02:19:36;20.50;;;9.02;;
70199;SDS011;57587;55.688;37.600;2023-05-24T02:22:04;20.90;;;9.05;;
70199;SDS011;57587;55.688;37.600;2023-05-24T02:24:33;25.35;;;9.20;;
70199;SDS011;57587;55.688;37.600;2023-05-24T02:27:00;25.63;;;9.50;;
70199;SDS011;57587;55.688;37.600;2023-05-24T02:29:28;30.48;;;9.50;;
70199;SDS011;57587;55.688;37.600;2023-05-24T02:31:55;35.85;;;10.13;;
70199;SDS011;57587;55.688;37.600;2023-05-24T02:34:22;29.90;;;9.38;;
70199;SDS011;57587;55.688;37.600;2023-05-24T02:36:50;28.85;;;9.38;;
70199;SDS011;57587;55.688;37.600;2023-05-24T02:39:19;27.60;;;8.65;;
70199;SDS011;57587;55.688;37.600;2023-05-24T02:41:47;24.88;;;8.43;;
70199;SDS011;57587;55.688;37.600;2023-05-24T02:44:14;27.70;;;8.73;;
70199;SDS011;57587;55.688;37.600;2023-05-24T02:46:41;22.33;;;8.30;;
70199;SDS011;57587;55.688;37.600;2023-05-24T02:49:08;16.48;;;7.65;;
70199;SDS011;57587;55.688;37.600;2023-05-24T02:51:36;27.63;;;9.05;;
70199;SDS011;57587;55.688;37.600;2023-05-24T02:54:03;21.52;;;8.43;;
70199;SDS011;57587;55.688;37.600;2023-05-24T02:56:30;23.70;;;8.05;;
70199;SDS011;57587;55.688;37.600;2023-05-24T02:58:57;18.75;;;8.25;;
70199;SDS011;57587;55.688;37.600;2023-05-24T03:01:25;16.50;;;7.72;;
70199;SDS011;57587;55.688;37.600;2023-05-24T03:03:54;19.52;;;8.27;;
70199;SDS011;57587;55.688;37.600;2023-05-24T03:06:21;14.18;;;7.93;;
70199;SDS011;57587;55.688;37.600;2023-05-24T03:08:50;16.52;;;8.20;;
70199;SDS011;57587;55.688;37.600;2023-05-24T03:11:18;17.00;;;7.90;;
70199;SDS011;57587;55.688;37.600;2023-05-24T03:13:48;18.50;;;10.32;;
70199;SDS011;57587;55.688;37.600;2023-05-24T03:16:15;15.18;;;8.30;;
70199;SDS011;57587;55.688;37.600;2023-05-24T03:18:46;16.25;;;7.70;;
70199;SDS011;57587;55.688;37.600;2023-05-24T03:21:16;12.93;;;8.40;;
70199;SDS011;57587;55.688;37.600;2023-05-24T03:23:47;16.33;;;8.00;;
70199;SDS011;57587;55.688;37.600;2023-05-24T03:26:14;16.05;;;7.22;;
70199;SDS011;57587;55.688;37.600;2023-05-24T03:28:41;13.75;;;7.82;;
70199;SDS011;57587;55.688;37.600;2023-05-24T03:31:09;18.00;;;8.20;;
70199;SDS011;57587;55.688;37.600;2023-05-24T03:33:36;17.58;;;8.07;;
70199;SDS011;57587;55.688;37.600;2023-05-24T03:36:04;12.60;;;7.28;;
70199;SDS011;57587;55.688;37.600;2023-05-24T03:38:34;15.90;;;7.53;;
70199;SDS011;57587;55.688;37.600;2023-05-24T03:41:02;14.10;;;6.90;;
70199;SDS011;57587;55.688;37.600;2023-05-24T03:43:29;19.85;;;7.13;;
70199;SDS011;57587;55.688;37.600;2023-05-24T03:46:00;14.93;;;7.07;;
70199;SDS011;57587;55.688;37.600;2023-05-24T03:48:27;12.32;;;6.97;;
70199;SDS011;57587;55.688;37.600;2023-05-24T03:50:55;12.63;;;7.20;;
70199;SDS011;57587;55.688;37.600;2023-05-24T03:53:22;10.82;;;7.10;;
70199;SDS011;57587;55.688;37.600;2023-05-24T03:55:49;19.17;;;7.15;;
70199;SDS011;57587;55.688;37.600;2023-05-24T03:58:17;18.58;;;8.48;;
70199;SDS011;57587;55.688;37.600;2023-05-24T04:00:45;18.05;;;7.53;;
70199;SDS011;57587;55.688;37.600;2023-05-24T04:03:13;19.70;;;8.20;;
70199;SDS011;57587;55.688;37.600;2023-05-24T04:05:41;18.42;;;7.85;;
70199;SDS011;57587;55.688;37.600;2023-05-24T04:08:09;14.23;;;7.43;;
70199;SDS011;57587;55.688;37.600;2023-05-24T04:10:37;18.95;;;7.32;;
70199;SDS011;57587;55.688;37.600;2023-05-24T04:13:04;20.50;;;7.80;;
70199;SDS011;57587;55.688;37.600;2023-05-24T04:15:35;12.57;;;7.32;;
70199;SDS011;57587;55.688;37.600;2023-05-24T04:18:03;15.20;;;7.57;;
70199;SDS011;57587;55.688;37.600;2023-05-24T04:20:33;21.38;;;7.50;;
70199;SDS011;57587;55.688;37.600;2023-05-24T04:23:01;20.33;;;7.38;;
70199;SDS011;57587;55.688;37.600;2023-05-24T04:25:28;20.83;;;7.63;;
70199;SDS011;57587;55.688;37.600;2023-05-24T04:27:56;18.90;;;8.15;;
70199;SDS011;57587;55.688;37.600;2023-05-24T04:30:24;21.90;;;8.13;;
70199;SDS011;57587;55.688;37.600;2023-05-24T04:32:51;19.13;;;8.38;;
70199;SDS011;57587;55.688;37.600;2023-05-24T04:35:19;22.48;;;8.82;;
70199;SDS011;57587;55.688;37.600;2023-05-24T04:37:47;15.03;;;8.43;;
70199;SDS011;57587;55.688;37.600;2023-05-24T04:40:17;15.57;;;8.30;;
70199;SDS011;57587;55.688;37.600;2023-05-24T04:42:48;15.40;;;7.32;;
70199;SDS011;57587;55.688;37.600;2023-05-24T04:45:16;14.32;;;8.55;;
70199;SDS011;57587;55.688;37.600;2023-05-24T04:47:43;13.88;;;8.73;;
70199;SDS011;57587;55.688;37.600;2023-05-24T04:50:10;13.13;;;9.13;;
70199;SDS011;57587;55.688;37.600;2023-05-24T04:52:38;12.15;;;8.07;;
70199;SDS011;57587;55.688;37.600;2023-05-24T04:55:05;13.32;;;7.57;;
70199;SDS011;57587;55.688;37.600;2023-05-24T04:57:32;13.75;;;8.82;;
70199;SDS011;57587;55.688;37.600;2023-05-24T04:59:59;13.90;;;9.23;;
70199;SDS011;57587;55.688;37.600;2023-05-24T05:02:31;16.40;;;8.23;;
70199;SDS011;57587;55.688;37.600;2023-05-24T05:04:58;15.85;;;8.38;;
70199;SDS011;57587;55.688;37.600;2023-05-24T05:07:26;15.68;;;8.27;;
70199;SDS011;57587;55.688;37.600;2023-05-24T05:09:53;13.10;;;7.65;;
70199;SDS011;57587;55.688;37.600;2023-05-24T05:12:20;15.85;;;7.82;;
70199;SDS011;57587;55.688;37.600;2023-05-24T05:14:47;16.53;;;7.90;;
70199;SDS011;57587;55.688;37.600;2023-05-24T05:17:14;20.02;;;8.77;;
70199;SDS011;57587;55.688;37.600;2023-05-24T05:19:41;21.27;;;8.40;;
70199;SDS011;57587;55.688;37.600;2023-05-24T05:22:08;17.55;;;8.10;;
70199;SDS011;57587;55.688;37.600;2023-05-24T05:24:36;16.73;;;8.40;;
70199;SDS011;57587;55.688;37.600;2023-05-24T05:27:03;18.67;;;8.10;;
70199;SDS011;57587;55.688;37.600;2023-05-24T05:29:31;12.80;;;7.43;;
70199;SDS011;57587;55.688;37.600;2023-05-24T05:31:58;14.10;;;8.25;;
70199;SDS011;57587;55.688;37.600;2023-05-24T05:34:26;14.00;;;8.18;;
70199;SDS011;57587;55.688;37.600;2023-05-24T05:36:53;12.50;;;7.47;;
70199;SDS011;57587;55.688;37.600;2023-05-24T05:39:20;19.03;;;7.87;;
70199;SDS011;57587;55.688;37.600;2023-05-24T05:41:47;16.40;;;8.02;;
70199;SDS011;57587;55.688;37.600;2023-05-24T05:44:14;17.95;;;8.05;;
70199;SDS011;57587;55.688;37.600;2023-05-24T05:46:41;16.05;;;8.23;;
70199;SDS011;57587;55.688;37.600;2023-05-24T05:49:12;13.57;;;8.23;;
70199;SDS011;57587;55.688;37.600;2023-05-24T05:51:40;15.00;;;8.37;;
70199;SDS011;57587;55.688;37.600;2023-05-24T05:54:08;14.80;;;8.70;;
70199;SDS011;57587;55.688;37.600;2023-05-24T05:56:40;14.85;;;7.63;;
70199;SDS011;57587;55.688;37.600;2023-05-24T05:59:11;12.48;;;6.55;;
70199;SDS011;57587;55.688;37.600;2023-05-24T06:01:39;13.38;;;7.82;;
70199;SDS011;57587;55.688;37.600;2023-05-24T06:04:06;12.70;;;7.03;;
70199;SDS011;57587;55.688;37.600;2023-05-24T06:06:34;12.25;;;7.20;;
70199;SDS011;57587;55.688;37.600;2023-05-24T06:09:01;12.73;;;7.13;;
70199;SDS011;57587;55.688;37.600;2023-05-24T06:11:28;12.25;;;7.15;;
70199;SDS011;57587;55.688;37.600;2023-05-24T06:13:55;12.32;;;6.80;;
70199;SDS011;57587;55.688;37.600;2023-05-24T06:16:22;16.60;;;7.60;;
70199;SDS011;57587;55.688;37.600;2023-05-24T06:18:49;15.23;;;7.40;;
70199;SDS011;57587;55.688;37.600;2023-05-24T06:21:31;12.07;;;7.90;;
70199;SDS011;57587;55.688;37.600;2023-05-24T06:23:58;12.75;;;7.85;;
70199;SDS011;57587;55.688;37.600;2023-05-24T06:26:28;23.35;;;9.95;;
70199;SDS011;57587;55.688;37.600;2023-05-24T06:28:56;23.93;;;9.63;;
70199;SDS011;57587;55.688;37.600;2023-05-24T06:31:23;16.73;;;9.18;;
70199;SDS011;57587;55.688;37.600;2023-05-24T06:33:52;19.13;;;9.27;;
70199;SDS011;57587;55.688;37.600;2023-05-24T06:36:30;16.55;;;8.57;;
70199;SDS011;57587;55.688;37.600;2023-05-24T06:39:01;14.27;;;8.32;;
70199;SDS011;57587;55.688;37.600;2023-05-24T06:41:29;18.17;;;8.47;;
70199;SDS011;57587;55.688;37.600;2023-05-24T06:43:56;14.50;;;8.20;;
70199;SDS011;57587;55.688;37.600;2023-05-24T06:46:24;18.80;;;8.43;;
70199;SDS011;57587;55.688;37.600;2023-05-24T06:48:51;16.70;;;9.48;;
70199;SDS011;57587;55.688;37.600;2023-05-24T06:51:18;14.70;;;8.50;;
70199;SDS011;57587;55.688;37.600;2023-05-24T06:53:45;13.23;;;9.13;;
70199;SDS011;57587;55.688;37.600;2023-05-24T06:56:12;17.33;;;8.35;;
70199;SDS011;57587;55.688;37.600;2023-05-24T06:58:40;12.27;;;6.93;;
70199;SDS011;57587;55.688;37.600;2023-05-24T07:01:07;17.70;;;7.78;;
70199;SDS011;57587;55.688;37.600;2023-05-24T07:03:35;16.58;;;7.13;;
70199;SDS011;57587;55.688;37.600;2023-05-24T07:06:02;12.53;;;8.70;;
70199;SDS011;57587;55.688;37.600;2023-05-24T07:08:31;12.88;;;7.10;;
70199;SDS011;57587;55.688;37.600;2023-05-24T07:10:58;13.75;;;6.93;;
70199;SDS011;57587;55.688;37.600;2023-05-24T07:13:25;19.30;;;8.85;;
70199;SDS011;57587;55.688;37.600;2023-05-24T07:15:53;17.25;;;11.13;;
70199;SDS011;57587;55.688;37.600;2023-05-24T07:18:20;15.53;;;9.07;;
70199;SDS011;57587;55.688;37.600;2023-05-24T07:20:47;17.63;;;8.50;;
70199;SDS011;57587;55.688;37.600;2023-05-24T07:23:14;14.02;;;7.10;;
70199;SDS011;57587;55.688;37.600;2023-05-24T07:25:41;13.15;;;7.85;;
70199;SDS011;57587;55.688;37.600;2023-05-24T07:28:09;15.45;;;7.38;;
70199;SDS011;57587;55.688;37.600;2023-05-24T07:30:36;17.00;;;7.63;;
70199;SDS011;57587;55.688;37.600;2023-05-24T07:33:05;16.25;;;8.38;;
70199;SDS011;57587;55.688;37.600;2023-05-24T07:35:32;12.77;;;8.02;;
70199;SDS011;57587;55.688;37.600;2023-05-24T07:37:59;13.93;;;8.73;;
70199;SDS011;57587;55.688;37.600;2023-05-24T07:40:26;16.17;;;8.05;;
70199;SDS011;57587;55.688;37.600;2023-05-24T07:42:53;12.53;;;8.83;;
70199;SDS011;57587;55.688;37.600;2023-05-24T07:45:21;15.23;;;8.40;;
70199;SDS011;57587;55.688;37.600;2023-05-24T07:47:48;16.35;;;8.65;;
70199;SDS011;57587;55.688;37.600;2023-05-24T07:50:16;13.10;;;8.27;;
70199;SDS011;57587;55.688;37.600;2023-05-24T07:52:43;17.10;;;8.70;;
70199;SDS011;57587;55.688;37.600;2023-05-24T07:55:11;20.93;;;9.47;;
70199;SDS011;57587;55.688;37.600;2023-05-24T07:57:38;16.75;;;8.77;;
70199;SDS011;57587;55.688;37.600;2023-05-24T08:00:05;15.50;;;8.43;;
70199;SDS011;57587;55.688;37.600;2023-05-24T08:02:40;14.65;;;8.40;;
70199;SDS011;57587;55.688;37.600;2023-05-24T08:05:12;15.07;;;8.57;;
70199;SDS011;57587;55.688;37.600;2023-05-24T08:07:40;15.03;;;8.83;;
70199;SDS011;57587;55.688;37.600;2023-05-24T08:10:10;15.73;;;9.00;;
70199;SDS011;57587;55.688;37.600;2023-05-24T08:12:40;18.55;;;8.85;;
70199;SDS011;57587;55.688;37.600;2023-05-24T08:15:07;13.65;;;8.68;;
70199;SDS011;57587;55.688;37.600;2023-05-24T08:17:35;15.02;;;9.13;;
70199;SDS011;57587;55.688;37.600;2023-05-24T08:20:04;15.97;;;9.07;;
70199;SDS011;57587;55.688;37.600;2023-05-24T08:22:41;22.08;;;9.55;;
70199;SDS011;57587;55.688;37.600;2023-05-24T08:25:09;22.50;;;10.55;;
70199;SDS011;57587;55.688;37.600;2023-05-24T08:27:39;29.73;;;11.25;;
70199;SDS011;57587;55.688;37.600;2023-05-24T08:30:07;19.77;;;9.68;;
70199;SDS011;57587;55.688;37.600;2023-05-24T08:32:34;17.53;;;9.10;;
70199;SDS011;57587;55.688;37.600;2023-05-24T08:35:02;17.05;;;9.68;;
70199;SDS011;57587;55.688;37.600;2023-05-24T08:37:46;20.77;;;9.18;;
70199;SDS011;57587;55.688;37.600;2023-05-24T08:40:15;18.73;;;9.68;;
70199;SDS011;57587;55.688;37.600;2023-05-24T08:42:43;20.70;;;9.93;;
70199;SDS011;57587;55.688;37.600;2023-05-24T08:45:12;17.47;;;9.10;;
70199;SDS011;57587;55.688;37.600;2023-05-24T08:47:41;19.48;;;9.82;;
70199;SDS011;57587;55.688;37.600;2023-05-24T08:50:09;15.95;;;9.20;;
70199;SDS011;57587;55.688;37.600;2023-05-24T08:52:37;17.33;;;9.88;;
70199;SDS011;57587;55.688;37.600;2023-05-24T08:55:05;16.80;;;8.82;;
70199;SDS011;57587;55.688;37.600;2023-05-24T08:57:33;16.13;;;8.37;;
70199;SDS011;57587;55.688;37.600;2023-05-24T09:00:08;14.25;;;8.55;;
70199;SDS011;57587;55.688;37.600;2023-05-24T09:02:39;11.60;;;8.23;;
70199;SDS011;57587;55.688;37.600;2023-05-24T09:05:08;17.02;;;8.20;;
70199;SDS011;57587;55.688;37.600;2023-05-24T09:07:37;14.95;;;7.80;;
70199;SDS011;57587;55.688;37.600;2023-05-24T09:10:05;16.83;;;8.40;;
70199;SDS011;57587;55.688;37.600;2023-05-24T09:12:38;15.20;;;7.68;;
70199;SDS011;57587;55.688;37.600;2023-05-24T09:15:10;14.40;;;6.85;;
70199;SDS011;57587;55.688;37.600;2023-05-24T09:17:37;12.98;;;7.10;;
70199;SDS011;57587;55.688;37.600;2023-05-24T09:20:06;13.50;;;6.70;;
70199;SDS011;57587;55.688;37.600;2023-05-24T09:22:35;13.93;;;7.30;;
70199;SDS011;57587;55.688;37.600;2023-05-24T09:25:08;12.23;;;6.90;;
70199;SDS011;57587;55.688;37.600;2023-05-24T09:27:37;13.27;;;6.65;;
70199;SDS011;57587;55.688;37.600;2023-05-24T09:30:08;10.95;;;5.88;;
70199;SDS011;57587;55.688;37.600;2023-05-24T09:32:36;11.82;;;6.43;;
70199;SDS011;57587;55.688;37.600;2023-05-24T09:35:06;11.53;;;6.20;;
70199;SDS011;57587;55.688;37.600;2023-05-24T09:37:35;12.25;;;5.82;;
70199;SDS011;57587;55.688;37.600;2023-05-24T09:40:05;12.45;;;6.60;;
70199;SDS011;57587;55.688;37.600;2023-05-24T09:42:34;9.80;;;6.22;;
70199;SDS011;57587;55.688;37.600;2023-05-24T09:45:02;13.95;;;6.50;;
70199;SDS011;57587;55.688;37.600;2023-05-24T09:47:38;14.93;;;5.93;;
70199;SDS011;57587;55.688;37.600;2023-05-24T09:50:15;13.25;;;6.00;;
70199;SDS011;57587;55.688;37.600;2023-05-24T09:52:43;12.60;;;6.55;;
70199;SDS011;57587;55.688;37.600;2023-05-24T09:55:13;12.95;;;6.63;;
70199;SDS011;57587;55.688;37.600;2023-05-24T09:57:43;14.27;;;6.72;;
70199;SDS011;57587;55.688;37.600;2023-05-24T10:00:19;18.00;;;7.70;;
70199;SDS011;57587;55.688;37.600;2023-05-24T10:03:10;12.65;;;7.10;;
70199;SDS011;57587;55.688;37.600;2023-05-24T10:05:40;15.98;;;7.30;;
70199;SDS011;57587;55.688;37.600;2023-05-24T10:08:10;12.30;;;6.43;;
70199;SDS011;57587;55.688;37.600;2023-05-24T10:10:38;10.98;;;5.88;;
70199;SDS011;57587;55.688;37.600;2023-05-24T10:13:05;8.00;;;5.50;;
70199;SDS011;57587;55.688;37.600;2023-05-24T10:15:33;10.00;;;5.10;;
70199;SDS011;57587;55.688;37.600;2023-05-24T10:18:00;9.75;;;5.43;;
70199;SDS011;57587;55.688;37.600;2023-05-24T10:20:37;11.75;;;5.10;;
70199;SDS011;57587;55.688;37.600;2023-05-24T10:23:08;10.15;;;5.00;;
70199;SDS011;57587;55.688;37.600;2023-05-24T10:25:37;12.37;;;5.33;;
70199;SDS011;57587;55.688;37.600;2023-05-24T10:28:11;10.75;;;5.75;;
70199;SDS011;57587;55.688;37.600;2023-05-24T10:30:52;9.93;;;5.60;;
70199;SDS011;57587;55.688;37.600;2023-05-24T10:33:22;11.50;;;5.80;;
70199;SDS011;57587;55.688;37.600;2023-05-24T10:35:51;10.15;;;6.60;;
70199;SDS011;57587;55.688;37.600;2023-05-24T10:38:19;9.53;;;6.10;;
70199;SDS011;57587;55.688;37.600;2023-05-24T10:40:49;14.30;;;5.97;;
70199;SDS011;57587;55.688;37.600;2023-05-24T10:43:17;16.80;;;6.43;;
70199;SDS011;57587;55.688;37.600;2023-05-24T10:45:48;13.20;;;6.05;;
70199;SDS011;57587;55.688;37.600;2023-05-24T10:50:50;13.40;;;6.83;;
70199;SDS011;57587;55.688;37.600;2023-05-24T10:53:18;12.98;;;6.55;;
70199;SDS011;57587;55.688;37.600;2023-05-24T10:58:26;13.10;;;6.13;;
70199;SDS011;57587;55.688;37.600;2023-05-24T11:01:13;13.52;;;5.95;;
70199;SDS011;57587;55.688;37.600;2023-05-24T11:03:54;14.77;;;6.60;;
70199;SDS011;57587;55.688;37.600;2023-05-24T11:06:54;12.85;;;6.05;;
70199;SDS011;57587;55.688;37.600;2023-05-24T11:09:21;15.50;;;7.00;;
70199;SDS011;57587;55.688;37.600;2023-05-24T11:11:50;11.10;;;6.10;;
70199;SDS011;57587;55.688;37.600;2023-05-24T11:14:22;15.57;;;6.10;;
70199;SDS011;57587;55.688;37.600;2023-05-24T11:16:51;16.43;;;5.97;;
70199;SDS011;57587;55.688;37.600;2023-05-24T11:21:48;11.32;;;6.45;;
70199;SDS011;57587;55.688;37.600;2023-05-24T11:24:16;16.08;;;6.45;;
70199;SDS011;57587;55.688;37.600;2023-05-24T11:26:45;13.35;;;6.80;;
70199;SDS011;57587;55.688;37.600;2023-05-24T11:29:13;15.00;;;6.47;;
70199;SDS011;57587;55.688;37.600;2023-05-24T11:34:47;8.98;;;5.35;;
70199;SDS011;57587;55.688;37.600;2023-05-24T11:37:15;13.20;;;6.72;;
70199;SDS011;57587;55.688;37.600;2023-05-24T11:39:48;10.65;;;5.95;;
70199;SDS011;57587;55.688;37.600;2023-05-24T11:42:18;11.77;;;5.73;;
70199;SDS011;57587;55.688;37.600;2023-05-24T11:44:47;18.38;;;6.28;;
70199;SDS011;57587;55.688;37.600;2023-05-24T11:47:14;9.65;;;5.97;;
70199;SDS011;57587;55.688;37.600;2023-05-24T11:49:41;12.27;;;7.07;;
70199;SDS011;57587;55.688;37.600;2023-05-24T11:52:08;14.35;;;6.75;;
70199;SDS011;57587;55.688;37.600;2023-05-24T11:54:35;13.97;;;6.90;;
70199;SDS011;57587;55.688;37.600;2023-05-24T11:57:04;14.95;;;6.80;;
70199;SDS011;57587;55.688;37.600;2023-05-24T11:59:32;11.60;;;6.55;;
70199;SDS011;57587;55.688;37.600;2023-05-24T12:02:02;13.05;;;7.57;;
70199;SDS011;57587;55.688;37.600;2023-05-24T12:04:31;16.10;;;7.40;;
70199;SDS011;57587;55.688;37.600;2023-05-24T12:07:00;11.93;;;6.97;;
70199;SDS011;57587;55.688;37.600;2023-05-24T12:09:28;12.88;;;7.22;;
70199;SDS011;57587;55.688;37.600;2023-05-24T12:11:56;13.57;;;6.82;;
70199;SDS011;57587;55.688;37.600;2023-05-24T12:16:54;12.48;;;6.65;;
70199;SDS011;57587;55.688;37.600;2023-05-24T12:19:23;12.37;;;6.20;;
70199;SDS011;57587;55.688;37.600;2023-05-24T12:21:55;12.65;;;7.15;;
70199;SDS011;57587;55.688;37.600;2023-05-24T12:24:24;11.25;;;6.15;;
70199;SDS011;57587;55.688;37.600;2023-05-24T12:26:56;11.52;;;6.90;;
70199;SDS011;57587;55.688;37.600;2023-05-24T12:29:31;10.60;;;7.05;;
70199;SDS011;57587;55.688;37.600;2023-05-24T12:32:03;13.23;;;6.87;;
70199;SDS011;57587;55.688;37.600;2023-05-24T12:34:31;10.75;;;6.30;;
70199;SDS011;57587;55.688;37.600;2023-05-24T12:36:58;10.25;;;6.13;;
70199;SDS011;57587;55.688;37.600;2023-05-24T12:39:26;11.10;;;6.60;;
70199;SDS011;57587;55.688;37.600;2023-05-24T12:42:01;14.13;;;7.10;;
70199;SDS011;57587;55.688;37.600;2023-05-24T12:44:35;15.37;;;6.57;;
70199;SDS011;57587;55.688;37.600;2023-05-24T12:47:04;14.23;;;6.88;;
70199;SDS011;57587;55.688;37.600;2023-05-24T12:49:33;12.02;;;6.90;;
70199;SDS011;57587;55.688;37.600;2023-05-24T12:52:00;12.73;;;7.40;;
70199;SDS011;57587;55.688;37.600;2023-05-24T12:54:28;14.73;;;6.70;;
70199;SDS011;57587;55.688;37.600;2023-05-24T12:56:56;17.53;;;8.17;;
70199;SDS011;57587;55.688;37.600;2023-05-24T12:59:26;13.65;;;7.68;;
70199;SDS011;57587;55.688;37.600;2023-05-24T13:01:54;16.13;;;7.53;;
70199;SDS011;57587;55.688;37.600;2023-05-24T13:04:22;15.73;;;7.97;;
70199;SDS011;57587;55.688;37.600;2023-05-24T13:06:52;12.00;;;7.60;;
70199;SDS011;57587;55.688;37.600;2023-05-24T13:09:19;16.03;;;8.13;;
70199;SDS011;57587;55.688;37.600;2023-05-24T13:11:51;18.80;;;9.73;;
70199;SDS011;57587;55.688;37.600;2023-05-24T13:14:20;15.55;;;8.45;;
70199;SDS011;57587;55.688;37.600;2023-05-24T13:16:47;17.85;;;9.20;;
70199;SDS011;57587;55.688;37.600;2023-05-24T13:19:15;17.00;;;8.82;;
70199;SDS011;57587;55.688;37.600;2023-05-24T13:21:43;14.97;;;8.97;;
70199;SDS011;57587;55.688;37.600;2023-05-24T13:24:12;17.52;;;9.00;;
70199;SDS011;57587;55.688;37.600;2023-05-24T13:26:42;17.17;;;8.35;;
70199;SDS011;57587;55.688;37.600;2023-05-24T13:29:10;16.25;;;8.52;;
70199;SDS011;57587;55.688;37.600;2023-05-24T13:31:41;17.15;;;8.95;;
70199;SDS011;57587;55.688;37.600;2023-05-24T13:34:09;15.70;;;8.47;;
70199;SDS011;57587;55.688;37.600;2023-05-24T13:36:39;15.18;;;8.10;;
70199;SDS011;57587;55.688;37.600;2023-05-24T13:39:43;16.10;;;8.15;;
70199;SDS011;57587;55.688;37.600;2023-05-24T13:42:11;18.40;;;8.25;;
70199;SDS011;57587;55.688;37.600;2023-05-24T13:44:38;14.50;;;7.65;;
70199;SDS011;57587;55.688;37.600;2023-05-24T13:47:06;10.77;;;7.03;;
70199;SDS011;57587;55.688;37.600;2023-05-24T13:49:34;13.85;;;7.38;;
70199;SDS011;57587;55.688;37.600;2023-05-24T13:52:01;10.65;;;6.20;;
70199;SDS011;57587;55.688;37.600;2023-05-24T13:54:29;11.40;;;5.72;;
70199;SDS011;57587;55.688;37.600;2023-05-24T13:56:57;9.13;;;5.53;;
70199;SDS011;57587;55.688;37.600;2023-05-24T13:59:25;12.40;;;6.00;;
70199;SDS011;57587;55.688;37.600;2023-05-24T14:01:53;12.25;;;5.53;;
70199;SDS011;57587;55.688;37.600;2023-05-24T14:04:20;12.23;;;6.00;;
70199;SDS011;57587;55.688;37.600;2023-05-24T14:06:47;12.18;;;5.55;;
70199;SDS011;57587;55.688;37.600;2023-05-24T14:09:14;10.25;;;5.78;;
70199;SDS011;57587;55.688;37.600;2023-05-24T14:11:42;12.77;;;5.43;;
70199;SDS011;57587;55.688;37.600;2023-05-24T14:14:12;9.70;;;5.55;;
70199;SDS011;57587;55.688;37.600;2023-05-24T14:16:42;14.25;;;5.38;;
70199;SDS011;57587;55.688;37.600;2023-05-24T14:19:11;9.13;;;5.50;;
70199;SDS011;57587;55.688;37.600;2023-05-24T14:21:38;13.15;;;5.68;;
70199;SDS011;57587;55.688;37.600;2023-05-24T14:24:06;12.47;;;5.60;;
70199;SDS011;57587;55.688;37.600;2023-05-24T14:26:35;11.77;;;5.40;;
70199;SDS011;57587;55.688;37.600;2023-05-24T14:29:02;10.32;;;5.90;;
70199;SDS011;57587;55.688;37.600;2023-05-24T14:31:29;12.35;;;6.10;;
70199;SDS011;57587;55.688;37.600;2023-05-24T14:33:56;12.45;;;5.97;;
70199;SDS011;57587;55.688;37.600;2023-05-24T14:36:24;11.37;;;6.10;;
70199;SDS011;57587;55.688;37.600;2023-05-24T14:38:51;10.75;;;6.05;;
70199;SDS011;57587;55.688;37.600;2023-05-24T14:41:18;14.00;;;5.85;;
70199;SDS011;57587;55.688;37.600;2023-05-24T14:43:45;9.73;;;5.63;;
70199;SDS011;57587;55.688;37.600;2023-05-24T14:46:13;12.65;;;6.10;;
70199;SDS011;57587;55.688;37.600;2023-05-24T14:48:40;15.77;;;6.43;;
70199;SDS011;57587;55.688;37.600;2023-05-24T14:51:07;12.32;;;6.22;;
70199;SDS011;57587;55.688;37.600;2023-05-24T14:53:35;14.63;;;7.05;;
70199;SDS011;57587;55.688;37.600;2023-05-24T14:56:02;17.17;;;6.15;;
70199;SDS011;57587;55.688;37.600;2023-05-24T14:58:30;11.07;;;6.88;;